sensor_id;sensor_type;location;lat;lon;timestamp;pressure;altitude;pressure_sealevel;temperature;humidity
67980;BME280;54760;47.490;19.030;2023-03-08T00:02:25;98730.53;;;6.02;75.79
67980;BME280;54760;47.490;19.030;2023-03-08T00:04:53;98725.91;;;6.19;75.55
67980;BME280;54760;47.490;19.030;2023-03-08T00:07:20;98735.94;;;6.22;75.37
67980;BME280;54760;47.490;19.030;2023-03-08T00:09:45;98734.38;;;6.21;75.27
67980;BME280;54760;47.490;19.030;2023-03-08T00:12:10;98729.53;;;6.13;76.09
67980;BME280;54760;47.490;19.030;2023-03-08T00:14:36;98733.16;;;6.06;75.90
67980;BME280;54760;47.490;19.030;2023-03-08T00:17:01;98729.91;;;5.95;76.34
67980;BME280;54760;47.490;19.030;2023-03-08T00:19:27;98731.88;;;5.94;77.10
67980;BME280;54760;47.490;19.030;2023-03-08T00:21:52;98725.84;;;5.83;77.05
67980;BME280;54760;47.490;19.030;2023-03-08T00:24:18;98734.00;;;5.83;77.01
67980;BME280;54760;47.490;19.030;2023-03-08T00:26:44;98735.19;;;5.82;76.86
67980;BME280;54760;47.490;19.030;2023-03-08T00:29:10;98732.75;;;5.68;77.54
67980;BME280;54760;47.490;19.030;2023-03-08T00:31:35;98725.66;;;5.54;78.31
67980;BME280;54760;47.490;19.030;2023-03-08T00:34:00;98726.22;;;5.46;78.76
67980;BME280;54760;47.490;19.030;2023-03-08T00:36:26;98741.09;;;5.38;79.14
67980;BME280;54760;47.490;19.030;2023-03-08T00:38:51;98734.34;;;5.26;79.61
67980;BME280;54760;47.490;19.030;2023-03-08T00:41:17;98728.00;;;5.13;80.26
67980;BME280;54760;47.490;19.030;2023-03-08T00:43:44;98729.97;;;5.09;80.79
67980;BME280;54760;47.490;19.030;2023-03-08T00:46:10;98723.56;;;4.99;81.05
67980;BME280;54760;47.490;19.030;2023-03-08T00:48:36;98723.91;;;5.01;80.84
67980;BME280;54760;47.490;19.030;2023-03-08T00:51:01;98708.66;;;4.88;81.83
67980;BME280;54760;47.490;19.030;2023-03-08T00:53:27;98717.28;;;4.83;82.73
67980;BME280;54760;47.490;19.030;2023-03-08T00:55:56;98708.53;;;4.71;84.71
67980;BME280;54760;47.490;19.030;2023-03-08T00:58:24;98717.59;;;4.85;83.67
67980;BME280;54760;47.490;19.030;2023-03-08T01:00:49;98732.38;;;4.84;85.02
67980;BME280;54760;47.490;19.030;2023-03-08T01:03:16;98725.97;;;4.94;85.42
67980;BME280;54760;47.490;19.030;2023-03-08T01:05:48;98727.47;;;4.98;86.01
67980;BME280;54760;47.490;19.030;2023-03-08T01:08:15;98721.56;;;5.03;85.90
67980;BME280;54760;47.490;19.030;2023-03-08T01:10:49;98710.81;;;5.19;85.32
67980;BME280;54760;47.490;19.030;2023-03-08T01:13:15;98709.44;;;5.31;84.99
67980;BME280;54760;47.490;19.030;2023-03-08T01:15:41;98718.06;;;5.26;85.42
67980;BME280;54760;47.490;19.030;2023-03-08T01:18:07;98736.75;;;5.20;85.25
67980;BME280;54760;47.490;19.030;2023-03-08T01:20:32;98728.56;;;5.01;86.07
67980;BME280;54760;47.490;19.030;2023-03-08T01:22:58;98736.94;;;5.10;84.74
67980;BME280;54760;47.490;19.030;2023-03-08T01:25:23;98746.69;;;5.07;85.49
67980;BME280;54760;47.490;19.030;2023-03-08T01:27:49;98742.19;;;5.20;84.29
67980;BME280;54760;47.490;19.030;2023-03-08T01:30:15;98746.75;;;5.23;84.13
67980;BME280;54760;47.490;19.030;2023-03-08T01:32:41;98754.59;;;4.98;85.37
67980;BME280;54760;47.490;19.030;2023-03-08T01:35:06;98745.25;;;4.99;85.56
67980;BME280;54760;47.490;19.030;2023-03-08T01:37:32;98744.06;;;5.00;84.81
67980;BME280;54760;47.490;19.030;2023-03-08T01:39:58;98758.37;;;5.24;83.71
67980;BME280;54760;47.490;19.030;2023-03-08T01:42:24;98762.34;;;4.73;85.72
67980;BME280;54760;47.490;19.030;2023-03-08T01:44:58;98761.06;;;4.81;85.49
67980;BME280;54760;47.490;19.030;2023-03-08T01:47:26;98756.63;;;4.91;85.20
67980;BME280;54760;47.490;19.030;2023-03-08T01:49:54;98767.88;;;4.89;84.41
67980;BME280;54760;47.490;19.030;2023-03-08T01:52:28;98764.22;;;4.99;85.21
67980;BME280;54760;47.490;19.030;2023-03-08T01:54:57;98770.38;;;5.03;84.51
67980;BME280;54760;47.490;19.030;2023-03-08T01:57:30;98770.09;;;4.98;84.70
67980;BME280;54760;47.490;19.030;2023-03-08T02:00:06;98779.19;;;4.84;85.67
67980;BME280;54760;47.490;19.030;2023-03-08T02:02:40;98783.44;;;4.85;85.28
67980;BME280;54760;47.490;19.030;2023-03-08T02:05:07;98774.59;;;4.81;85.34
67980;BME280;54760;47.490;19.030;2023-03-08T02:07:33;98774.59;;;4.81;85.58
67980;BME280;54760;47.490;19.030;2023-03-08T02:09:59;98778.94;;;5.02;84.58
67980;BME280;54760;47.490;19.030;2023-03-08T02:12:25;98775.91;;;4.96;84.08
67980;BME280;54760;47.490;19.030;2023-03-08T02:14:51;98783.59;;;5.01;84.51
67980;BME280;54760;47.490;19.030;2023-03-08T02:17:17;98792.50;;;5.02;84.96
67980;BME280;54760;47.490;19.030;2023-03-08T02:20:23;98794.16;;;4.69;86.14
67980;BME280;54760;47.490;19.030;2023-03-08T02:22:42;98784.16;;;4.89;85.61
67980;BME280;54760;47.490;19.030;2023-03-08T02:25:20;98791.94;;;4.87;85.39
67980;BME280;54760;47.490;19.030;2023-03-08T02:27:47;98789.47;;;4.96;85.01
67980;BME280;54760;47.490;19.030;2023-03-08T02:30:14;98786.16;;;4.85;86.01
67980;BME280;54760;47.490;19.030;2023-03-08T02:32:41;98790.81;;;4.85;86.80
67980;BME280;54760;47.490;19.030;2023-03-08T02:35:07;98793.12;;;4.86;86.56
67980;BME280;54760;47.490;19.030;2023-03-08T02:37:33;98788.84;;;4.62;87.96
67980;BME280;54760;47.490;19.030;2023-03-08T02:39:59;98799.69;;;4.62;87.81
67980;BME280;54760;47.490;19.030;2023-03-08T02:42:24;98809.03;;;4.57;88.55
67980;BME280;54760;47.490;19.030;2023-03-08T02:44:50;98805.00;;;4.69;87.99
67980;BME280;54760;47.490;19.030;2023-03-08T02:47:15;98816.00;;;4.85;87.39
67980;BME280;54760;47.490;19.030;2023-03-08T02:49:41;98820.88;;;4.94;87.19
67980;BME280;54760;47.490;19.030;2023-03-08T02:52:06;98824.12;;;4.85;87.47
67980;BME280;54760;47.490;19.030;2023-03-08T02:54:32;98827.28;;;4.80;88.34
67980;BME280;54760;47.490;19.030;2023-03-08T02:56:57;98830.22;;;4.93;87.76
67980;BME280;54760;47.490;19.030;2023-03-08T02:59:23;98831.00;;;4.93;87.59
67980;BME280;54760;47.490;19.030;2023-03-08T03:01:48;98843.47;;;4.87;87.90
67980;BME280;54760;47.490;19.030;2023-03-08T03:04:13;98834.78;;;4.72;88.11
67980;BME280;54760;47.490;19.030;2023-03-08T03:06:39;98843.06;;;4.89;88.15
67980;BME280;54760;47.490;19.030;2023-03-08T03:09:06;98840.75;;;4.87;87.71
67980;BME280;54760;47.490;19.030;2023-03-08T03:11:32;98846.66;;;4.82;87.75
67980;BME280;54760;47.490;19.030;2023-03-08T03:13:58;98845.16;;;4.77;87.97
67980;BME280;54760;47.490;19.030;2023-03-08T03:16:25;98842.87;;;4.99;86.95
67980;BME280;54760;47.490;19.030;2023-03-08T03:18:55;98851.03;;;4.72;87.95
67980;BME280;54760;47.490;19.030;2023-03-08T03:21:21;98865.00;;;4.98;87.73
67980;BME280;54760;47.490;19.030;2023-03-08T03:23:48;98858.81;;;4.97;86.50
67980;BME280;54760;47.490;19.030;2023-03-08T03:26:18;98871.69;;;5.16;86.09
67980;BME280;54760;47.490;19.030;2023-03-08T03:28:44;98869.53;;;5.04;86.08
67980;BME280;54760;47.490;19.030;2023-03-08T03:31:21;98881.06;;;4.58;87.86
67980;BME280;54760;47.490;19.030;2023-03-08T03:33:47;98890.75;;;4.86;87.02
67980;BME280;54760;47.490;19.030;2023-03-08T03:36:15;98886.47;;;4.85;86.31
67980;BME280;54760;47.490;19.030;2023-03-08T03:38:41;98893.00;;;4.91;85.65
67980;BME280;54760;47.490;19.030;2023-03-08T03:41:09;98886.66;;;4.44;88.05
67980;BME280;54760;47.490;19.030;2023-03-08T03:43:35;98886.47;;;4.58;87.81
67980;BME280;54760;47.490;19.030;2023-03-08T03:46:03;98870.78;;;4.73;88.46
67980;BME280;54760;47.490;19.030;2023-03-08T03:48:29;98870.66;;;4.80;88.16
67980;BME280;54760;47.490;19.030;2023-03-08T03:50:55;98868.78;;;4.77;88.32
67980;BME280;54760;47.490;19.030;2023-03-08T03:53:22;98870.69;;;5.07;86.89
67980;BME280;54760;47.490;19.030;2023-03-08T03:55:48;98852.72;;;4.90;87.17
67980;BME280;54760;47.490;19.030;2023-03-08T03:58:13;98846.59;;;4.86;86.69
67980;BME280;54760;47.490;19.030;2023-03-08T04:00:38;98843.63;;;4.76;85.93
67980;BME280;54760;47.490;19.030;2023-03-08T04:03:04;98835.87;;;4.75;86.54
67980;BME280;54760;47.490;19.030;2023-03-08T04:05:29;98841.06;;;4.66;86.68
67980;BME280;54760;47.490;19.030;2023-03-08T04:07:55;98828.59;;;4.42;88.19
67980;BME280;54760;47.490;19.030;2023-03-08T04:10:20;98834.75;;;4.46;88.73
67980;BME280;54760;47.490;19.030;2023-03-08T04:12:49;98838.53;;;4.52;88.61
67980;BME280;54760;47.490;19.030;2023-03-08T04:15:15;98844.38;;;4.77;87.23
67980;BME280;54760;47.490;19.030;2023-03-08T04:17:40;98856.44;;;4.99;85.65
67980;BME280;54760;47.490;19.030;2023-03-08T04:20:07;98864.75;;;4.62;86.44
67980;BME280;54760;47.490;19.030;2023-03-08T04:22:32;98869.44;;;4.58;87.41
67980;BME280;54760;47.490;19.030;2023-03-08T04:24:58;98874.53;;;4.52;87.63
67980;BME280;54760;47.490;19.030;2023-03-08T04:27:23;98881.53;;;4.80;87.42
67980;BME280;54760;47.490;19.030;2023-03-08T04:29:49;98880.06;;;5.02;85.49
67980;BME280;54760;47.490;19.030;2023-03-08T04:32:14;98892.62;;;5.16;84.92
67980;BME280;54760;47.490;19.030;2023-03-08T04:34:40;98899.53;;;5.20;84.16
67980;BME280;54760;47.490;19.030;2023-03-08T04:37:09;98902.81;;;5.08;84.71
67980;BME280;54760;47.490;19.030;2023-03-08T04:39:35;98910.81;;;4.92;85.46
67980;BME280;54760;47.490;19.030;2023-03-08T04:42:01;98906.91;;;4.93;86.04
67980;BME280;54760;47.490;19.030;2023-03-08T04:44:26;98911.56;;;4.93;86.27
67980;BME280;54760;47.490;19.030;2023-03-08T04:46:52;98906.09;;;4.96;86.17
67980;BME280;54760;47.490;19.030;2023-03-08T04:49:17;98908.94;;;4.59;87.64
67980;BME280;54760;47.490;19.030;2023-03-08T04:51:43;98913.25;;;4.53;87.82
67980;BME280;54760;47.490;19.030;2023-03-08T04:54:08;98904.94;;;4.67;88.41
67980;BME280;54760;47.490;19.030;2023-03-08T04:56:34;98908.03;;;4.69;87.60
67980;BME280;54760;47.490;19.030;2023-03-08T04:59:00;98907.91;;;4.76;86.08
67980;BME280;54760;47.490;19.030;2023-03-08T05:01:25;98909.34;;;4.84;86.66
67980;BME280;54760;47.490;19.030;2023-03-08T05:03:51;98903.00;;;4.94;85.62
67980;BME280;54760;47.490;19.030;2023-03-08T05:06:18;98898.41;;;4.91;84.83
67980;BME280;54760;47.490;19.030;2023-03-08T05:08:44;98905.84;;;4.87;85.76
67980;BME280;54760;47.490;19.030;2023-03-08T05:11:16;98903.84;;;4.91;85.26
67980;BME280;54760;47.490;19.030;2023-03-08T05:13:42;98908.44;;;4.94;85.65
67980;BME280;54760;47.490;19.030;2023-03-08T05:16:08;98897.38;;;5.08;84.46
67980;BME280;54760;47.490;19.030;2023-03-08T05:18:34;98903.09;;;5.17;83.85
67980;BME280;54760;47.490;19.030;2023-03-08T05:21:03;98891.38;;;4.97;82.66
67980;BME280;54760;47.490;19.030;2023-03-08T05:23:29;98896.66;;;5.04;83.32
67980;BME280;54760;47.490;19.030;2023-03-08T05:25:56;98898.97;;;5.06;82.17
67980;BME280;54760;47.490;19.030;2023-03-08T05:28:23;98898.06;;;5.16;80.82
67980;BME280;54760;47.490;19.030;2023-03-08T05:30:49;98912.78;;;5.15;79.68
67980;BME280;54760;47.490;19.030;2023-03-08T05:33:24;98911.81;;;5.29;78.79
67980;BME280;54760;47.490;19.030;2023-03-08T05:35:53;98922.78;;;5.21;76.97
67980;BME280;54760;47.490;19.030;2023-03-08T05:38:20;98930.50;;;5.23;78.32
67980;BME280;54760;47.490;19.030;2023-03-08T05:40:46;98927.59;;;5.10;76.62
67980;BME280;54760;47.490;19.030;2023-03-08T05:43:11;98931.09;;;5.34;76.69
67980;BME280;54760;47.490;19.030;2023-03-08T05:45:37;98947.22;;;5.45;77.53
67980;BME280;54760;47.490;19.030;2023-03-08T05:48:02;98945.19;;;5.26;76.11
67980;BME280;54760;47.490;19.030;2023-03-08T05:50:28;98949.34;;;5.34;75.62
67980;BME280;54760;47.490;19.030;2023-03-08T05:52:53;98954.28;;;5.65;76.11
67980;BME280;54760;47.490;19.030;2023-03-08T05:55:18;98956.81;;;5.76;74.96
67980;BME280;54760;47.490;19.030;2023-03-08T05:57:44;98959.94;;;5.75;75.43
67980;BME280;54760;47.490;19.030;2023-03-08T06:00:10;98969.00;;;5.91;72.81
67980;BME280;54760;47.490;19.030;2023-03-08T06:02:35;98972.75;;;6.01;73.20
67980;BME280;54760;47.490;19.030;2023-03-08T06:05:01;98984.69;;;6.27;73.29
67980;BME280;54760;47.490;19.030;2023-03-08T06:07:26;98977.09;;;6.38;73.32
67980;BME280;54760;47.490;19.030;2023-03-08T06:09:52;98974.31;;;6.41;73.27
67980;BME280;54760;47.490;19.030;2023-03-08T06:12:17;98979.44;;;6.59;72.80
67980;BME280;54760;47.490;19.030;2023-03-08T06:14:42;98972.56;;;6.31;71.21
67980;BME280;54760;47.490;19.030;2023-03-08T06:17:08;98977.31;;;6.47;72.34
67980;BME280;54760;47.490;19.030;2023-03-08T06:19:33;98976.41;;;6.34;73.43
67980;BME280;54760;47.490;19.030;2023-03-08T06:21:59;98984.50;;;6.57;72.16
67980;BME280;54760;47.490;19.030;2023-03-08T06:24:24;98989.03;;;6.44;70.61
67980;BME280;54760;47.490;19.030;2023-03-08T06:26:50;98989.88;;;6.61;67.22
67980;BME280;54760;47.490;19.030;2023-03-08T06:29:15;98996.28;;;6.70;67.93
67980;BME280;54760;47.490;19.030;2023-03-08T06:31:40;99002.28;;;6.81;67.29
67980;BME280;54760;47.490;19.030;2023-03-08T06:34:06;99000.22;;;6.89;64.10
67980;BME280;54760;47.490;19.030;2023-03-08T06:36:31;98994.25;;;6.94;65.90
67980;BME280;54760;47.490;19.030;2023-03-08T06:38:57;98993.59;;;7.26;65.93
67980;BME280;54760;47.490;19.030;2023-03-08T06:41:23;99006.22;;;7.52;64.95
67980;BME280;54760;47.490;19.030;2023-03-08T06:43:49;99007.41;;;7.67;64.10
67980;BME280;54760;47.490;19.030;2023-03-08T06:46:16;99008.72;;;7.79;64.53
67980;BME280;54760;47.490;19.030;2023-03-08T06:48:43;99021.91;;;7.80;63.82
67980;BME280;54760;47.490;19.030;2023-03-08T06:51:09;99008.03;;;7.91;62.64
67980;BME280;54760;47.490;19.030;2023-03-08T06:53:34;99010.50;;;7.86;61.00
67980;BME280;54760;47.490;19.030;2023-03-08T06:56:01;99019.16;;;7.97;60.19
67980;BME280;54760;47.490;19.030;2023-03-08T06:58:27;99016.78;;;7.82;57.08
67980;BME280;54760;47.490;19.030;2023-03-08T07:00:53;99012.72;;;7.74;55.10
67980;BME280;54760;47.490;19.030;2023-03-08T07:03:19;99023.75;;;7.67;54.18
67980;BME280;54760;47.490;19.030;2023-03-08T07:05:44;99021.81;;;7.52;52.69
67980;BME280;54760;47.490;19.030;2023-03-08T07:08:10;99021.12;;;7.48;52.90
67980;BME280;54760;47.490;19.030;2023-03-08T07:10:36;99030.25;;;7.57;53.23
67980;BME280;54760;47.490;19.030;2023-03-08T07:13:01;99034.81;;;7.60;52.49
67980;BME280;54760;47.490;19.030;2023-03-08T07:15:27;99032.31;;;7.86;53.14
67980;BME280;54760;47.490;19.030;2023-03-08T07:17:55;99040.97;;;8.13;51.63
67980;BME280;54760;47.490;19.030;2023-03-08T07:20:23;99041.81;;;8.58;49.25
67980;BME280;54760;47.490;19.030;2023-03-08T07:22:48;99042.63;;;8.55;48.69
67980;BME280;54760;47.490;19.030;2023-03-08T07:25:16;99050.56;;;8.66;48.72
67980;BME280;54760;47.490;19.030;2023-03-08T07:27:42;99052.12;;;8.51;49.01
67980;BME280;54760;47.490;19.030;2023-03-08T07:30:08;99053.41;;;8.46;49.15
67980;BME280;54760;47.490;19.030;2023-03-08T07:32:35;99055.78;;;8.28;49.40
67980;BME280;54760;47.490;19.030;2023-03-08T07:35:01;99054.44;;;8.36;49.73
67980;BME280;54760;47.490;19.030;2023-03-08T07:37:26;99056.31;;;8.23;49.70
67980;BME280;54760;47.490;19.030;2023-03-08T07:39:52;99062.19;;;8.21;48.65
67980;BME280;54760;47.490;19.030;2023-03-08T07:42:18;99056.03;;;8.17;48.51
67980;BME280;54760;47.490;19.030;2023-03-08T07:44:43;99065.44;;;8.33;48.40
67980;BME280;54760;47.490;19.030;2023-03-08T07:47:08;99070.81;;;8.20;48.99
67980;BME280;54760;47.490;19.030;2023-03-08T07:49:34;99073.69;;;8.29;48.74
67980;BME280;54760;47.490;19.030;2023-03-08T07:52:00;99083.41;;;8.46;48.25
67980;BME280;54760;47.490;19.030;2023-03-08T07:54:26;99080.53;;;8.37;48.19
67980;BME280;54760;47.490;19.030;2023-03-08T07:56:52;99083.41;;;8.46;48.05
67980;BME280;54760;47.490;19.030;2023-03-08T07:59:18;99079.94;;;8.30;48.24
67980;BME280;54760;47.490;19.030;2023-03-08T08:01:43;99092.44;;;8.43;47.27
67980;BME280;54760;47.490;19.030;2023-03-08T08:04:09;99092.03;;;8.45;47.94
67980;BME280;54760;47.490;19.030;2023-03-08T08:06:37;99103.66;;;8.61;47.63
67980;BME280;54760;47.490;19.030;2023-03-08T08:09:03;99109.37;;;8.67;47.01
67980;BME280;54760;47.490;19.030;2023-03-08T08:11:29;99107.88;;;8.34;48.02
67980;BME280;54760;47.490;19.030;2023-03-08T08:13:54;99110.09;;;8.55;47.32
67980;BME280;54760;47.490;19.030;2023-03-08T08:16:19;99115.63;;;8.51;47.35
67980;BME280;54760;47.490;19.030;2023-03-08T08:18:45;99109.50;;;8.47;47.40
67980;BME280;54760;47.490;19.030;2023-03-08T08:21:14;99093.28;;;8.56;47.19
67980;BME280;54760;47.490;19.030;2023-03-08T08:23:41;99100.31;;;8.70;46.70
67980;BME280;54760;47.490;19.030;2023-03-08T08:26:10;99107.41;;;8.84;45.79
67980;BME280;54760;47.490;19.030;2023-03-08T08:28:37;99108.06;;;8.88;45.48
67980;BME280;54760;47.490;19.030;2023-03-08T08:31:09;99101.72;;;8.91;45.00
67980;BME280;54760;47.490;19.030;2023-03-08T08:33:36;99100.66;;;8.88;45.52
67980;BME280;54760;47.490;19.030;2023-03-08T08:36:04;99101.16;;;8.83;44.71
67980;BME280;54760;47.490;19.030;2023-03-08T08:38:30;99102.72;;;8.84;44.71
67980;BME280;54760;47.490;19.030;2023-03-08T08:41:00;99100.50;;;8.79;44.38
67980;BME280;54760;47.490;19.030;2023-03-08T08:43:26;99101.72;;;8.91;44.61
67980;BME280;54760;47.490;19.030;2023-03-08T08:45:54;99096.56;;;9.09;44.37
67980;BME280;54760;47.490;19.030;2023-03-08T08:48:20;99103.63;;;8.94;44.31
67980;BME280;54760;47.490;19.030;2023-03-08T08:50:45;99109.59;;;8.89;44.20
67980;BME280;54760;47.490;19.030;2023-03-08T08:53:11;99105.66;;;8.90;44.43
67980;BME280;54760;47.490;19.030;2023-03-08T08:55:36;99107.00;;;8.98;44.21
67980;BME280;54760;47.490;19.030;2023-03-08T08:58:03;99092.97;;;9.12;44.19
67980;BME280;54760;47.490;19.030;2023-03-08T09:00:30;99090.72;;;8.94;44.48
67980;BME280;54760;47.490;19.030;2023-03-08T09:02:58;99089.66;;;9.33;44.31
67980;BME280;54760;47.490;19.030;2023-03-08T09:05:23;99095.97;;;9.30;44.32
67980;BME280;54760;47.490;19.030;2023-03-08T09:07:52;99093.06;;;9.50;43.17
67980;BME280;54760;47.490;19.030;2023-03-08T09:10:18;99078.44;;;9.69;43.13
67980;BME280;54760;47.490;19.030;2023-03-08T09:12:44;99082.28;;;9.72;43.52
67980;BME280;54760;47.490;19.030;2023-03-08T09:15:10;99084.66;;;9.82;43.11
67980;BME280;54760;47.490;19.030;2023-03-08T09:17:39;99078.75;;;9.58;42.47
67980;BME280;54760;47.490;19.030;2023-03-08T09:20:06;99066.50;;;9.50;42.99
67980;BME280;54760;47.490;19.030;2023-03-08T09:22:36;99073.94;;;9.88;43.08
67980;BME280;54760;47.490;19.030;2023-03-08T09:25:02;99073.09;;;10.16;42.02
67980;BME280;54760;47.490;19.030;2023-03-08T09:27:27;99077.13;;;10.24;41.78
67980;BME280;54760;47.490;19.030;2023-03-08T09:29:53;99070.53;;;10.09;41.86
67980;BME280;54760;47.490;19.030;2023-03-08T09:32:18;99072.59;;;10.43;41.76
67980;BME280;54760;47.490;19.030;2023-03-08T09:34:44;99068.94;;;10.59;41.29
67980;BME280;54760;47.490;19.030;2023-03-08T09:37:12;99059.66;;;11.21;39.73
67980;BME280;54760;47.490;19.030;2023-03-08T09:39:38;99068.44;;;11.38;39.17
67980;BME280;54760;47.490;19.030;2023-03-08T09:42:06;99063.78;;;11.48;39.11
67980;BME280;54760;47.490;19.030;2023-03-08T09:48:14;99062.31;;;11.87;38.92
67980;BME280;54760;47.490;19.030;2023-03-08T09:50:47;99060.34;;;11.87;39.58
67980;BME280;54760;47.490;19.030;2023-03-08T09:53:43;99056.00;;;14.82;34.98
67980;BME280;54760;47.490;19.030;2023-03-08T09:58:53;99059.25;;;15.97;32.49
67980;BME280;54760;47.490;19.030;2023-03-08T10:01:37;99057.75;;;16.52;31.53
67980;BME280;54760;47.490;19.030;2023-03-08T10:04:13;99041.06;;;18.49;28.87
67980;BME280;54760;47.490;19.030;2023-03-08T10:14:50;99054.16;;;15.17;33.37
67980;BME280;54760;47.490;19.030;2023-03-08T10:17:21;99056.84;;;14.02;35.81
67980;BME280;54760;47.490;19.030;2023-03-08T10:22:59;99053.75;;;13.16;37.95
67980;BME280;54760;47.490;19.030;2023-03-08T10:25:30;99052.53;;;12.98;37.96
67980;BME280;54760;47.490;19.030;2023-03-08T10:28:00;99059.41;;;12.67;39.22
67980;BME280;54760;47.490;19.030;2023-03-08T10:30:32;99053.16;;;12.66;39.89
67980;BME280;54760;47.490;19.030;2023-03-08T10:32:59;99054.38;;;12.83;39.62
67980;BME280;54760;47.490;19.030;2023-03-08T10:35:49;99048.28;;;12.79;39.45
67980;BME280;54760;47.490;19.030;2023-03-08T10:38:16;99057.75;;;12.78;39.57
67980;BME280;54760;47.490;19.030;2023-03-08T10:40:42;99058.63;;;12.39;40.19
67980;BME280;54760;47.490;19.030;2023-03-08T10:43:17;99056.97;;;12.96;38.88
67980;BME280;54760;47.490;19.030;2023-03-08T10:45:44;99053.16;;;12.75;39.20
67980;BME280;54760;47.490;19.030;2023-03-08T10:48:19;99053.75;;;12.97;38.66
67980;BME280;54760;47.490;19.030;2023-03-08T10:50:45;99054.06;;;13.69;37.24
67980;BME280;54760;47.490;19.030;2023-03-08T10:53:21;99043.03;;;13.36;37.77
67980;BME280;54760;47.490;19.030;2023-03-08T10:55:50;99045.66;;;13.21;37.78
67980;BME280;54760;47.490;19.030;2023-03-08T11:01:00;99028.09;;;14.26;35.99
67980;BME280;54760;47.490;19.030;2023-03-08T11:03:26;99023.63;;;14.29;35.81
67980;BME280;54760;47.490;19.030;2023-03-08T11:06:13;99021.72;;;14.20;36.09
67980;BME280;54760;47.490;19.030;2023-03-08T11:08:53;99020.75;;;14.00;36.65
67980;BME280;54760;47.490;19.030;2023-03-08T11:11:19;99017.25;;;13.99;36.64
67980;BME280;54760;47.490;19.030;2023-03-08T11:13:47;99019.47;;;13.44;37.17
67980;BME280;54760;47.490;19.030;2023-03-08T11:27:46;98994.00;;;13.76;35.57
67980;BME280;54760;47.490;19.030;2023-03-08T11:33:28;98994.78;;;13.35;36.16
67980;BME280;54760;47.490;19.030;2023-03-08T11:38:37;99000.59;;;13.28;36.87
67980;BME280;54760;47.490;19.030;2023-03-08T11:49:29;99002.94;;;12.11;38.65
67980;BME280;54760;47.490;19.030;2023-03-08T11:57:23;98998.12;;;11.75;38.60
67980;BME280;54760;47.490;19.030;2023-03-08T11:59:54;98994.97;;;11.55;38.52
67980;BME280;54760;47.490;19.030;2023-03-08T12:02:27;98999.25;;;11.56;38.24
67980;BME280;54760;47.490;19.030;2023-03-08T12:05:15;98988.91;;;11.60;38.32
67980;BME280;54760;47.490;19.030;2023-03-08T12:10:54;98977.09;;;11.72;37.69
67980;BME280;54760;47.490;19.030;2023-03-08T12:16:18;98966.16;;;11.81;37.98
67980;BME280;54760;47.490;19.030;2023-03-08T12:26:37;98969.75;;;11.69;39.00
67980;BME280;54760;47.490;19.030;2023-03-08T12:29:20;98975.66;;;11.58;39.22
67980;BME280;54760;47.490;19.030;2023-03-08T12:31:48;98968.06;;;11.62;39.58
67980;BME280;54760;47.490;19.030;2023-03-08T12:36:59;98957.97;;;11.50;38.02
67980;BME280;54760;47.490;19.030;2023-03-08T12:39:34;98950.25;;;11.67;38.68
67980;BME280;54760;47.490;19.030;2023-03-08T12:44:34;98934.44;;;11.71;38.79
67980;BME280;54760;47.490;19.030;2023-03-08T12:49:43;98917.72;;;11.78;39.12
67980;BME280;54760;47.490;19.030;2023-03-08T12:54:42;98909.81;;;11.80;39.83
67980;BME280;54760;47.490;19.030;2023-03-08T12:57:20;98904.00;;;11.78;39.61
67980;BME280;54760;47.490;19.030;2023-03-08T12:59:46;98897.63;;;11.81;39.90
67980;BME280;54760;47.490;19.030;2023-03-08T13:02:26;98890.31;;;12.24;39.37
67980;BME280;54760;47.490;19.030;2023-03-08T13:05:12;98892.62;;;12.85;37.88
67980;BME280;54760;47.490;19.030;2023-03-08T13:10:36;98853.97;;;13.87;35.54
67980;BME280;54760;47.490;19.030;2023-03-08T13:15:42;98840.84;;;14.21;34.46
67980;BME280;54760;47.490;19.030;2023-03-08T13:25:51;98804.06;;;15.93;30.74
67980;BME280;54760;47.490;19.030;2023-03-08T13:28:21;98802.53;;;16.18;30.62
67980;BME280;54760;47.490;19.030;2023-03-08T13:30:56;98801.38;;;16.04;30.56
67980;BME280;54760;47.490;19.030;2023-03-08T13:33:36;98810.16;;;14.87;31.89
67980;BME280;54760;47.490;19.030;2023-03-08T13:38:38;98795.56;;;14.07;33.56
67980;BME280;54760;47.490;19.030;2023-03-08T13:41:04;98783.09;;;13.82;34.14
67980;BME280;54760;47.490;19.030;2023-03-08T13:43:31;98785.81;;;13.68;34.92
67980;BME280;54760;47.490;19.030;2023-03-08T13:46:00;98776.16;;;13.34;36.31
67980;BME280;54760;47.490;19.030;2023-03-08T13:48:29;98770.56;;;13.43;36.18
67980;BME280;54760;47.490;19.030;2023-03-08T13:50:57;98772.66;;;13.24;36.34
67980;BME280;54760;47.490;19.030;2023-03-08T13:53:25;98768.47;;;13.05;36.95
67980;BME280;54760;47.490;19.030;2023-03-08T13:55:54;98763.63;;;13.00;37.49
67980;BME280;54760;47.490;19.030;2023-03-08T14:01:00;98758.63;;;12.98;37.89
67980;BME280;54760;47.490;19.030;2023-03-08T14:03:28;98762.91;;;12.99;38.53
67980;BME280;54760;47.490;19.030;2023-03-08T14:05:54;98751.59;;;12.97;39.24
67980;BME280;54760;47.490;19.030;2023-03-08T14:08:22;98765.97;;;12.92;40.17
67980;BME280;54760;47.490;19.030;2023-03-08T14:11:00;98754.66;;;12.67;41.25
67980;BME280;54760;47.490;19.030;2023-03-08T14:13:29;98759.63;;;12.77;41.56
67980;BME280;54760;47.490;19.030;2023-03-08T14:15:58;98764.22;;;12.80;41.70
67980;BME280;54760;47.490;19.030;2023-03-08T14:18:29;98758.78;;;12.62;42.14
67980;BME280;54760;47.490;19.030;2023-03-08T14:21:06;98767.41;;;12.46;42.77
67980;BME280;54760;47.490;19.030;2023-03-08T14:23:40;98757.66;;;12.45;43.06
67980;BME280;54760;47.490;19.030;2023-03-08T14:28:47;98756.34;;;12.64;43.09
67980;BME280;54760;47.490;19.030;2023-03-08T14:31:27;98748.47;;;12.48;43.32
67980;BME280;54760;47.490;19.030;2023-03-08T14:34:01;98757.34;;;12.76;42.80
67980;BME280;54760;47.490;19.030;2023-03-08T14:36:29;98754.69;;;12.57;43.71
67980;BME280;54760;47.490;19.030;2023-03-08T14:38:55;98751.81;;;12.52;44.50